Time;durP1;ratioP1;P1;durP2;ratioP2;P2;SDS_P1;SDS_P2;PMS_P1;PMS_P2;Temp;Humidity;BMP_temperature;BMP_pressure;BME280_temperature;BME280_humidity;BME280_pressure;Samples;Min_cycle;Max_cycle;Signal;HPM_P1;HPM_P2
2023/01/06 00:00:21;;;;;;;1.17;0.60;;;10.80;99.90;;;;;;4974900;28;20442;-78
2023/01/06 00:02:47;;;;;;;2.73;0.83;;;10.80;99.90;;;;;;4992580;28;20437;-78
2023/01/06 00:05:13;;;;;;;0.80;0.80;;;10.70;99.90;;;;;;4991079;28;20434;-78
2023/01/06 00:07:40;;;;;;;1.43;0.80;;;10.80;99.90;;;;;;4992736;28;20265;-78
2023/01/06 00:10:06;;;;;;;0.93;0.70;;;10.70;99.90;;;;;;4991421;28;22577;-78
2023/01/06 00:12:32;;;;;;;0.90;0.77;;;10.70;99.90;;;;;;4992619;28;20986;-80
2023/01/06 00:14:57;;;;;;;1.00;0.70;;;10.70;99.90;;;;;;4993902;28;20426;-79
2023/01/06 00:17:23;;;;;;;0.83;0.60;;;10.70;99.90;;;;;;4975436;28;20201;-78
2023/01/06 00:19:49;;;;;;;1.07;0.80;;;10.70;99.90;;;;;;4992206;28;20186;-79
2023/01/06 00:22:14;;;;;;;1.57;0.60;;;10.80;99.90;;;;;;4992692;28;20257;-83
2023/01/06 00:24:40;;;;;;;1.17;0.80;;;10.70;99.90;;;;;;4991147;28;20281;-79
2023/01/06 00:27:05;;;;;;;1.77;0.60;;;10.70;99.90;;;;;;4992228;28;20603;-79
2023/01/06 00:29:31;;;;;;;1.60;0.80;;;10.70;99.90;;;;;;4990235;28;20183;-79
2023/01/06 00:32:01;;;;;;;0.90;0.67;;;10.70;99.90;;;;;;4990390;28;20237;-78
2023/01/06 00:34:27;;;;;;;1.03;0.60;;;10.80;99.90;;;;;;4991805;28;20187;-78
2023/01/06 00:36:54;;;;;;;0.93;0.67;;;10.90;99.90;;;;;;4992353;28;20477;-81
2023/01/06 00:39:19;;;;;;;0.90;0.70;;;10.80;99.90;;;;;;4992358;28;21245;-81
2023/01/06 00:42:03;;;;;;;1.10;0.50;;;10.90;99.90;;;;;;4992490;28;20481;-80
2023/01/06 00:44:34;;;;;;;4.07;0.60;;;10.90;99.90;;;;;;4991342;28;20275;-79
2023/01/06 00:46:59;;;;;;;3.90;0.70;;;11.00;99.90;;;;;;4974718;28;20950;-80
2023/01/06 00:49:26;;;;;;;1.00;0.87;;;11.10;99.90;;;;;;4992787;28;20437;-80
2023/01/06 00:51:52;;;;;;;1.00;0.60;;;11.00;99.90;;;;;;4992523;28;20468;-79
2023/01/06 00:54:18;;;;;;;0.97;0.57;;;11.00;99.90;;;;;;4992483;28;20423;-79
2023/01/06 00:56:46;;;;;;;0.90;0.50;;;11.00;99.90;;;;;;4990277;28;20424;-79
2023/01/06 00:59:14;;;;;;;1.33;0.60;;;11.20;99.90;;;;;;4991200;28;20420;-78
2023/01/06 01:01:40;;;;;;;1.53;0.70;;;11.10;99.90;;;;;;4991264;28;20449;-79
2023/01/06 01:04:06;;;;;;;0.80;0.70;;;11.20;99.90;;;;;;4973296;28;20492;-77
2023/01/06 01:06:32;;;;;;;0.80;0.60;;;10.90;99.90;;;;;;4989285;28;21081;-78
2023/01/06 01:08:59;;;;;;;0.70;0.50;;;10.70;99.90;;;;;;4989679;28;20432;-80
2023/01/06 01:14:11;;;;;;;1.47;0.77;;;10.80;99.90;;;;;;4990614;28;20418;-79
2023/01/06 01:16:37;;;;;;;0.70;0.50;;;10.80;99.90;;;;;;4972214;28;20803;-78
2023/01/06 01:19:03;;;;;;;1.53;0.70;;;10.90;99.90;;;;;;4976001;28;20504;-78
2023/01/06 01:21:29;;;;;;;0.80;0.50;;;10.70;99.90;;;;;;4993486;28;20936;-78
2023/01/06 01:23:54;;;;;;;0.80;0.60;;;10.50;99.90;;;;;;4993568;28;20196;-78
2023/01/06 01:26:20;;;;;;;0.70;0.50;;;10.70;99.90;;;;;;4992261;28;20251;-79
2023/01/06 01:28:45;;;;;;;0.80;0.70;;;10.60;99.90;;;;;;4992005;28;20187;-78
2023/01/06 01:31:12;;;;;;;1.00;0.60;;;10.70;99.90;;;;;;4993212;28;20248;-79
2023/01/06 01:33:38;;;;;;;0.90;0.50;;;10.80;99.90;;;;;;4975367;28;20210;-77
2023/01/06 01:36:14;;;;;;;0.83;0.60;;;10.70;99.90;;;;;;4993079;28;20423;-77
2023/01/06 01:38:40;;;;;;;0.80;0.70;;;11.00;99.90;;;;;;4993042;28;20420;-76
2023/01/06 01:41:06;;;;;;;0.80;0.60;;;10.70;99.90;;;;;;4993006;28;20826;-76
2023/01/06 01:43:52;;;;;;;2.80;0.60;;;10.70;99.90;;;;;;4992951;28;20440;-76
2023/01/06 01:46:43;;;;;;;2.03;0.70;;;10.70;99.90;;;;;;4991810;28;20430;-78
2023/01/06 01:49:15;;;;;;;0.90;0.50;;;10.60;99.90;;;;;;4992753;28;20490;-78
2023/01/06 01:51:45;;;;;;;1.30;0.47;;;10.50;99.90;;;;;;4993101;28;20469;-78
2023/01/06 01:54:16;;;;;;;0.80;0.60;;;10.40;99.90;;;;;;4994815;28;20489;-79
2023/01/06 01:56:46;;;;;;;2.00;0.40;;;10.30;99.90;;;;;;4993851;28;20422;-78
2023/01/06 01:59:18;;;;;;;0.70;0.50;;;10.70;99.90;;;;;;4975813;28;20488;-78
2023/01/06 02:01:45;;;;;;;1.97;0.60;;;10.50;99.90;;;;;;4975721;28;20459;-78
2023/01/06 02:04:11;;;;;;;2.83;2.23;;;10.50;99.90;;;;;;4993624;28;20459;-78
2023/01/06 02:06:39;;;;;;;3.33;3.00;;;10.40;99.90;;;;;;4992291;28;20431;-78
2023/01/06 02:09:14;;;;;;;6.60;3.47;;;10.20;99.90;;;;;;4993389;28;20523;-79
2023/01/06 02:11:41;;;;;;;3.47;2.57;;;10.00;99.90;;;;;;4993201;28;20472;-78
2023/01/06 02:14:16;;;;;;;3.33;2.40;;;9.90;99.90;;;;;;4975345;28;20499;-79
2023/01/06 02:17:10;;;;;;;4.30;2.40;;;9.90;99.90;;;;;;4975276;28;20810;-78
2023/01/06 02:20:05;;;;;;;4.47;3.13;;;9.80;99.90;;;;;;4992574;28;20433;-76
2023/01/06 02:23:01;;;;;;;2.83;2.50;;;9.70;99.90;;;;;;4992653;28;20415;-77
2023/01/06 02:25:30;;;;;;;2.20;1.97;;;9.60;99.90;;;;;;4974963;28;20764;-76
2023/01/06 02:28:16;;;;;;;2.13;1.67;;;9.60;99.90;;;;;;4992013;28;20479;-77
2023/01/06 02:30:54;;;;;;;2.37;2.17;;;9.60;99.90;;;;;;4991724;28;20485;-77
2023/01/06 02:33:35;;;;;;;4.30;2.30;;;9.60;99.90;;;;;;4992151;28;20444;-77
2023/01/06 02:36:23;;;;;;;2.27;2.07;;;9.60;99.90;;;;;;4991934;28;20403;-76
2023/01/06 02:39:19;;;;;;;2.20;1.90;;;9.50;99.90;;;;;;4992159;28;20476;-77
2023/01/06 02:42:08;;;;;;;2.50;2.20;;;9.50;99.90;;;;;;4992091;28;20439;-77
2023/01/06 02:44:45;;;;;;;2.20;2.00;;;9.50;99.90;;;;;;4992466;28;20511;-77
2023/01/06 02:47:32;;;;;;;2.10;1.90;;;9.50;99.90;;;;;;4991976;28;20930;-77
2023/01/06 02:50:16;;;;;;;2.67;1.83;;;9.50;99.90;;;;;;4974245;28;20484;-77
2023/01/06 02:53:08;;;;;;;2.50;1.50;;;9.60;99.90;;;;;;4991956;28;20965;-77
2023/01/06 02:55:47;;;;;;;1.70;1.60;;;9.50;99.90;;;;;;4991890;28;20445;-77
2023/01/06 02:58:46;;;;;;;1.70;1.27;;;9.50;99.90;;;;;;4992027;28;20448;-77
2023/01/06 03:01:24;;;;;;;1.47;1.30;;;9.60;99.90;;;;;;4974149;28;21011;-77
2023/01/06 03:03:52;;;;;;;1.83;0.70;;;9.60;99.90;;;;;;4990151;28;20908;-76
2023/01/06 03:06:24;;;;;;;0.90;0.50;;;9.80;99.90;;;;;;4991308;28;20508;-77
2023/01/06 03:08:52;;;;;;;0.70;0.50;;;9.90;99.90;;;;;;4990234;28;20413;-77
2023/01/06 03:11:18;;;;;;;1.93;0.40;;;10.10;99.90;;;;;;4989708;28;20481;-77
2023/01/06 03:13:57;;;;;;;0.70;0.47;;;10.20;99.90;;;;;;4991266;28;20427;-76
2023/01/06 03:16:22;;;;;;;0.97;0.50;;;10.30;99.90;;;;;;4973667;28;20194;-77
2023/01/06 03:18:51;;;;;;;0.73;0.50;;;10.30;99.90;;;;;;4991528;28;20513;-77
2023/01/06 03:21:33;;;;;;;0.87;0.60;;;10.40;99.90;;;;;;4991801;28;20218;-79
2023/01/06 03:23:58;;;;;;;0.80;0.70;;;10.40;99.90;;;;;;4990578;28;20518;-77
2023/01/06 03:26:25;;;;;;;0.80;0.50;;;10.50;99.90;;;;;;4991473;28;20518;-78
2023/01/06 03:28:50;;;;;;;2.40;0.50;;;10.50;99.90;;;;;;4973882;28;20288;-77
2023/01/06 03:31:50;;;;;;;3.30;0.70;;;10.60;99.90;;;;;;4990285;28;20930;-77
2023/01/06 03:34:42;;;;;;;0.90;0.70;;;10.60;99.90;;;;;;4991681;28;20269;-77
2023/01/06 03:37:32;;;;;;;0.70;0.40;;;10.70;99.90;;;;;;4974298;28;20428;-77
2023/01/06 03:40:17;;;;;;;0.87;0.50;;;10.70;99.90;;;;;;4973654;28;20423;-77
2023/01/06 03:43:17;;;;;;;2.33;0.70;;;10.70;99.90;;;;;;4990227;28;20945;-79
2023/01/06 03:46:04;;;;;;;0.70;0.50;;;10.70;99.90;;;;;;4991542;28;20485;-78
2023/01/06 03:48:49;;;;;;;1.27;0.53;;;10.60;99.90;;;;;;4991430;28;20992;-78
2023/01/06 03:51:36;;;;;;;0.90;0.60;;;10.60;99.90;;;;;;4991643;28;21063;-78
2023/01/06 03:54:41;;;;;;;0.70;0.50;;;10.60;99.90;;;;;;4975197;28;20465;-79
2023/01/06 03:57:22;;;;;;;0.80;0.60;;;10.60;99.90;;;;;;4974248;28;20431;-80
2023/01/06 04:00:14;;;;;;;4.10;0.53;;;10.50;99.90;;;;;;4974056;28;21091;-79
2023/01/06 04:02:40;;;;;;;10.97;5.90;;;10.60;99.90;;;;;;4991598;28;20449;-80
2023/01/06 04:05:06;;;;;;;0.90;0.77;;;10.50;99.90;;;;;;4991682;28;20415;-78
2023/01/06 04:07:32;;;;;;;1.53;1.00;;;10.50;99.90;;;;;;4990192;28;20429;-77
2023/01/06 04:09:57;;;;;;;1.40;0.63;;;10.40;99.90;;;;;;4991568;28;20200;-78
2023/01/06 04:12:38;;;;;;;2.20;0.50;;;10.40;99.90;;;;;;4990097;28;20473;-78
2023/01/06 04:15:12;;;;;;;0.90;0.70;;;10.40;99.90;;;;;;4990900;28;20191;-78
2023/01/06 04:17:39;;;;;;;1.30;0.60;;;10.40;99.90;;;;;;4991045;28;20424;-79
2023/01/06 04:20:06;;;;;;;0.80;0.53;;;10.40;99.90;;;;;;4990939;28;20966;-77
2023/01/06 04:22:32;;;;;;;0.80;0.50;;;10.40;99.90;;;;;;4973505;28;20433;-79
2023/01/06 04:24:58;;;;;;;0.80;0.50;;;10.30;99.90;;;;;;4973250;28;20776;-77
2023/01/06 04:27:23;;;;;;;1.10;0.53;;;10.40;99.90;;;;;;4990114;28;20194;-76
2023/01/06 04:29:49;;;;;;;0.97;0.60;;;10.30;99.90;;;;;;4988577;28;20205;-76
2023/01/06 04:32:15;;;;;;;0.80;0.60;;;10.30;99.90;;;;;;4989747;28;20731;-76
2023/01/06 04:34:40;;;;;;;0.70;0.50;;;10.20;99.90;;;;;;4972063;28;20246;-76
2023/01/06 04:37:06;;;;;;;1.30;0.57;;;10.20;99.90;;;;;;4988293;28;20187;-76
2023/01/06 04:39:31;;;;;;;0.70;0.50;;;10.20;99.90;;;;;;4988166;28;20363;-75
2023/01/06 04:41:57;;;;;;;0.70;0.47;;;10.20;99.90;;;;;;4989602;28;20215;-77
2023/01/06 04:44:23;;;;;;;0.80;0.50;;;10.20;99.90;;;;;;4972295;28;20193;-76
2023/01/06 04:46:48;;;;;;;0.70;0.50;;;10.20;99.90;;;;;;4989530;28;20193;-76
2023/01/06 04:49:14;;;;;;;0.80;0.50;;;10.20;99.90;;;;;;4955772;28;20196;-76
2023/01/06 04:51:39;;;;;;;1.33;0.60;;;10.20;99.90;;;;;;4988688;28;20262;-76
2023/01/06 04:54:05;;;;;;;1.00;0.50;;;10.20;99.90;;;;;;4989478;28;20194;-76
2023/01/06 04:56:30;;;;;;;0.80;0.60;;;10.20;99.90;;;;;;4989465;28;20632;-76
2023/01/06 04:58:57;;;;;;;0.70;0.40;;;10.10;99.90;;;;;;4988184;28;20186;-76
2023/01/06 05:01:24;;;;;;;0.90;0.60;;;10.20;99.90;;;;;;4989128;28;20212;-76
2023/01/06 05:03:50;;;;;;;0.70;0.40;;;10.00;99.90;;;;;;4989235;28;21050;-76
2023/01/06 05:06:16;;;;;;;0.70;0.50;;;9.80;99.90;;;;;;4971639;28;20476;-78
2023/01/06 05:08:43;;;;;;;0.70;0.50;;;9.80;99.90;;;;;;4990212;28;20464;-78
2023/01/06 05:11:15;;;;;;;0.70;0.43;;;9.70;99.90;;;;;;4988260;28;20476;-80
2023/01/06 05:13:41;;;;;;;1.30;0.60;;;9.80;99.90;;;;;;4989654;28;20479;-78
2023/01/06 05:16:16;;;;;;;0.80;0.60;;;9.50;99.90;;;;;;4989836;28;20985;-78
2023/01/06 05:18:42;;;;;;;0.60;0.40;;;9.70;99.90;;;;;;4989428;28;20417;-78
2023/01/06 05:21:07;;;;;;;0.83;0.40;;;9.70;99.90;;;;;;4989153;28;20824;-77
2023/01/06 05:23:33;;;;;;;0.70;0.40;;;9.60;99.90;;;;;;4989466;28;20273;-77
2023/01/06 05:25:59;;;;;;;1.53;0.60;;;9.60;99.90;;;;;;4989689;28;20693;-81
2023/01/06 05:28:24;;;;;;;0.70;0.40;;;9.80;99.90;;;;;;4971730;28;20586;-78
2023/01/06 05:30:51;;;;;;;1.67;0.40;;;9.90;99.90;;;;;;4987832;28;20309;-78
2023/01/06 05:33:16;;;;;;;0.90;0.60;;;9.70;99.90;;;;;;4987681;28;20349;-78
2023/01/06 05:35:42;;;;;;;0.80;0.70;;;9.80;99.90;;;;;;4955406;28;20516;-77
2023/01/06 05:38:08;;;;;;;0.80;0.50;;;9.80;99.90;;;;;;4989295;28;20197;-79
2023/01/06 05:40:34;;;;;;;0.70;0.60;;;9.80;99.90;;;;;;4987515;28;20309;-79
2023/01/06 05:42:59;;;;;;;0.60;0.40;;;9.70;99.90;;;;;;4988978;28;20212;-77
2023/01/06 05:45:25;;;;;;;1.90;0.60;;;9.80;99.90;;;;;;4987685;28;20942;-77
2023/01/06 05:47:51;;;;;;;0.80;0.40;;;9.80;99.90;;;;;;4987759;28;20296;-78
2023/01/06 05:50:17;;;;;;;1.90;0.40;;;9.80;99.90;;;;;;4989047;28;20665;-78
2023/01/06 05:52:43;;;;;;;0.93;0.50;;;9.70;99.90;;;;;;4990213;28;20480;-78
2023/01/06 05:55:09;;;;;;;0.93;0.57;;;9.70;99.90;;;;;;4961251;28;20521;-79
2023/01/06 05:57:35;;;;;;;0.90;0.53;;;9.60;99.90;;;;;;5005916;28;20399;-78
2023/01/06 06:00:04;;;;;;;0.80;0.50;;;9.50;99.90;;;;;;5010529;28;20409;-79
2023/01/06 06:02:30;;;;;;;0.70;0.50;;;9.50;99.90;;;;;;5009479;28;20429;-78
2023/01/06 06:04:55;;;;;;;0.70;0.40;;;9.50;99.90;;;;;;5013138;28;20432;-77
2023/01/06 06:07:21;;;;;;;0.60;0.40;;;9.40;99.90;;;;;;4999207;28;20202;-78
2023/01/06 06:09:46;;;;;;;0.70;0.40;;;9.30;99.90;;;;;;4995146;28;20198;-78
2023/01/06 06:12:12;;;;;;;0.70;0.40;;;9.30;99.90;;;;;;4993507;28;20260;-77
2023/01/06 06:14:38;;;;;;;0.70;0.40;;;9.40;99.90;;;;;;4994094;28;20656;-77
2023/01/06 06:17:03;;;;;;;0.60;0.40;;;9.30;99.90;;;;;;4991663;28;20186;-77
2023/01/06 06:19:29;;;;;;;0.70;0.40;;;9.40;99.90;;;;;;4991533;28;20655;-77
2023/01/06 06:21:55;;;;;;;0.73;0.50;;;9.60;99.90;;;;;;4992980;28;20644;-78
2023/01/06 06:24:20;;;;;;;0.70;0.60;;;9.50;99.90;;;;;;4992720;28;20186;-78
2023/01/06 06:26:46;;;;;;;0.70;0.50;;;9.50;99.90;;;;;;4993043;28;20424;-78
2023/01/06 06:29:11;;;;;;;0.70;0.40;;;9.40;99.90;;;;;;4993195;28;20182;-80
2023/01/06 06:31:37;;;;;;;1.23;0.40;;;9.30;99.90;;;;;;4995948;28;20247;-80
2023/01/06 06:34:03;;;;;;;0.77;0.50;;;9.20;99.90;;;;;;4977522;28;20194;-77
2023/01/06 06:36:30;;;;;;;1.27;0.40;;;9.30;99.90;;;;;;4975556;28;20232;-77
2023/01/06 06:38:56;;;;;;;0.70;0.40;;;9.30;99.90;;;;;;4992901;28;20460;-76
2023/01/06 06:41:23;;;;;;;0.70;0.40;;;9.30;99.90;;;;;;4993232;28;20787;-78
2023/01/06 06:43:49;;;;;;;0.90;0.50;;;9.20;99.90;;;;;;4993821;28;20429;-78
2023/01/06 06:46:16;;;;;;;1.20;0.60;;;9.20;99.90;;;;;;4991687;28;20442;-78
2023/01/06 06:48:41;;;;;;;1.00;0.50;;;9.30;99.90;;;;;;4975230;28;20441;-77
2023/01/06 06:51:13;;;;;;;0.80;0.50;;;9.30;99.90;;;;;;4992530;28;20854;-81
2023/01/06 06:53:39;;;;;;;0.80;0.53;;;9.30;99.90;;;;;;4976964;28;20186;-79
2023/01/06 06:56:06;;;;;;;0.70;0.50;;;9.20;99.90;;;;;;4992886;28;20432;-79
2023/01/06 06:58:32;;;;;;;0.70;0.40;;;9.20;99.90;;;;;;4994396;28;20429;-78
2023/01/06 07:00:58;;;;;;;0.70;0.47;;;9.30;99.90;;;;;;4994038;28;20449;-78
2023/01/06 07:03:24;;;;;;;1.03;1.00;;;9.10;99.90;;;;;;4976136;28;20423;-79
2023/01/06 07:05:51;;;;;;;1.00;0.80;;;8.90;99.90;;;;;;4992762;28;20248;-79
2023/01/06 07:08:17;;;;;;;1.70;1.60;;;9.00;99.90;;;;;;4992454;28;20930;-79
2023/01/06 07:10:43;;;;;;;2.20;2.00;;;8.80;99.90;;;;;;4975311;28;20457;-78
2023/01/06 07:13:08;;;;;;;2.33;2.10;;;8.60;99.90;;;;;;4991479;28;20503;-77
2023/01/06 07:15:34;;;;;;;2.33;1.40;;;8.40;99.90;;;;;;4991817;28;20182;-77
2023/01/06 07:18:05;;;;;;;2.60;1.30;;;8.30;99.90;;;;;;4992887;28;20186;-77
2023/01/06 07:20:31;;;;;;;0.70;0.67;;;8.20;99.90;;;;;;4990913;28;20213;-76
2023/01/06 07:22:57;;;;;;;1.03;0.90;;;8.10;99.90;;;;;;4992220;28;20429;-78
2023/01/06 07:25:23;;;;;;;1.17;1.07;;;7.90;99.90;;;;;;4994456;28;20808;-78
2023/01/06 07:27:56;;;;;;;1.80;1.53;;;7.80;99.90;;;;;;4990638;28;20178;-76
2023/01/06 07:30:23;;;;;;;1.20;0.90;;;7.80;99.90;;;;;;4973926;28;20212;-76
2023/01/06 07:32:49;;;;;;;0.90;0.83;;;7.70;99.90;;;;;;4991325;28;21069;-76
2023/01/06 07:35:16;;;;;;;0.93;0.83;;;7.70;99.90;;;;;;4991770;28;20469;-76
2023/01/06 07:37:41;;;;;;;0.90;0.80;;;7.70;99.90;;;;;;4991566;28;20428;-76
2023/01/06 07:40:08;;;;;;;1.20;1.07;;;7.70;99.90;;;;;;4973899;28;20426;-77
2023/01/06 07:42:35;;;;;;;1.40;1.30;;;7.80;99.90;;;;;;4991530;28;20885;-76
2023/01/06 07:45:01;;;;;;;1.63;1.03;;;7.90;99.90;;;;;;4991338;28;20426;-76
2023/01/06 07:47:26;;;;;;;2.57;2.20;;;7.90;99.90;;;;;;4989972;28;20945;-75
2023/01/06 07:49:52;;;;;;;2.13;1.90;;;8.00;99.90;;;;;;4990809;28;20461;-76
2023/01/06 07:52:18;;;;;;;3.07;2.40;;;8.00;99.90;;;;;;4989569;28;20225;-76
2023/01/06 07:54:43;;;;;;;1.40;1.17;;;8.00;99.90;;;;;;4990814;28;20190;-76
2023/01/06 07:57:09;;;;;;;1.97;1.20;;;8.10;99.90;;;;;;4989285;28;20189;-76
2023/01/06 07:59:34;;;;;;;2.13;1.33;;;8.10;99.90;;;;;;4990943;28;20575;-76
2023/01/06 08:02:00;;;;;;;1.23;1.13;;;8.30;99.90;;;;;;4989056;28;20218;-76
2023/01/06 08:04:26;;;;;;;1.37;1.27;;;8.40;99.90;;;;;;4991690;28;20598;-76
2023/01/06 08:06:51;;;;;;;1.07;0.97;;;8.50;99.90;;;;;;4990825;28;20188;-77
2023/01/06 08:09:17;;;;;;;1.20;1.10;;;8.70;99.90;;;;;;4989178;28;20220;-77
2023/01/06 08:11:42;;;;;;;1.37;1.00;;;8.80;99.90;;;;;;4973251;28;20244;-78
2023/01/06 08:14:10;;;;;;;1.10;0.80;;;8.90;99.90;;;;;;4990106;28;20177;-78
2023/01/06 08:16:37;;;;;;;0.90;0.80;;;8.80;99.90;;;;;;4993808;28;20233;-75
2023/01/06 08:19:03;;;;;;;1.47;1.10;;;8.80;99.90;;;;;;4998454;28;20451;-75
2023/01/06 08:21:29;;;;;;;0.80;0.70;;;8.80;99.90;;;;;;4993726;28;20470;-76
2023/01/06 08:23:54;;;;;;;1.80;0.83;;;8.80;99.90;;;;;;4992087;28;20448;-76
2023/01/06 08:26:20;;;;;;;0.83;0.60;;;8.60;99.90;;;;;;4990027;28;20250;-79
2023/01/06 08:28:46;;;;;;;0.70;0.53;;;8.70;99.90;;;;;;4991078;28;20721;-78
2023/01/06 08:31:14;;;;;;;1.60;0.83;;;9.00;99.90;;;;;;4989040;28;20214;-78
2023/01/06 08:33:40;;;;;;;0.70;0.60;;;10.30;99.90;;;;;;4971890;28;20737;-76
2023/01/06 08:36:07;;;;;;;0.80;0.67;;;11.20;99.90;;;;;;4972011;28;20437;-75
2023/01/06 08:38:34;;;;;;;2.87;0.80;;;12.40;99.90;;;;;;4989797;28;20267;-75
2023/01/06 08:41:01;;;;;;;0.97;0.80;;;13.00;99.90;;;;;;4989690;28;20835;-75
2023/01/06 08:43:27;;;;;;;0.90;0.60;;;13.10;99.90;;;;;;4989393;28;20426;-76
2023/01/06 08:45:57;;;;;;;0.70;0.53;;;12.70;99.90;;;;;;4989396;28;20431;-75
2023/01/06 08:48:22;;;;;;;2.10;0.70;;;12.20;99.90;;;;;;4989633;28;20430;-77
2023/01/06 08:50:48;;;;;;;0.90;0.70;;;11.90;99.90;;;;;;4987102;28;20474;-75
2023/01/06 08:53:14;;;;;;;1.30;0.70;;;11.70;99.90;;;;;;4970678;28;20628;-74
2023/01/06 08:55:40;;;;;;;1.17;0.60;;;11.50;99.90;;;;;;4987200;28;20233;-75
2023/01/06 08:58:07;;;;;;;0.70;0.50;;;11.40;99.90;;;;;;4986742;28;20628;-78
2023/01/06 09:00:33;;;;;;;1.97;0.60;;;11.20;99.90;;;;;;4988448;28;20439;-78
2023/01/06 09:02:59;;;;;;;0.77;0.63;;;11.10;99.90;;;;;;4970410;28;20441;-75
2023/01/06 09:05:24;;;;;;;0.90;0.60;;;11.00;99.90;;;;;;4986946;28;20972;-75
2023/01/06 09:07:50;;;;;;;1.10;0.70;;;10.80;99.90;;;;;;4986633;28;20190;-75
2023/01/06 09:10:18;;;;;;;0.80;0.70;;;10.70;99.90;;;;;;4986360;28;20203;-76
2023/01/06 09:12:43;;;;;;;1.57;0.80;;;10.60;99.90;;;;;;4987870;28;20318;-77
2023/01/06 09:15:09;;;;;;;1.10;1.00;;;10.50;99.90;;;;;;4988304;28;20460;-78
2023/01/06 09:17:35;;;;;;;2.03;0.83;;;10.40;99.90;;;;;;4986859;28;20416;-77
2023/01/06 09:20:01;;;;;;;1.90;0.80;;;10.30;99.90;;;;;;4988600;28;20437;-77
2023/01/06 09:22:27;;;;;;;1.47;0.80;;;10.00;99.90;;;;;;4988249;28;20183;-76
2023/01/06 09:24:52;;;;;;;1.10;0.70;;;9.80;99.90;;;;;;4970743;28;20425;-77
2023/01/06 09:27:18;;;;;;;0.90;0.70;;;9.80;99.90;;;;;;4987829;28;20511;-77
2023/01/06 09:29:44;;;;;;;4.77;1.00;;;9.60;99.90;;;;;;4986816;28;20191;-77
2023/01/06 09:32:09;;;;;;;2.90;0.63;;;9.50;99.90;;;;;;4987720;28;20222;-77
2023/01/06 09:34:35;;;;;;;0.83;0.83;;;9.60;99.90;;;;;;4988335;28;20190;-77
2023/01/06 09:37:00;;;;;;;2.03;0.50;;;9.50;99.90;;;;;;4988286;28;20190;-77
2023/01/06 09:39:26;;;;;;;1.27;0.87;;;9.50;99.90;;;;;;4991081;28;20190;-77
2023/01/06 09:42:10;;;;;;;1.10;0.90;;;9.50;99.90;;;;;;4991820;28;20261;-77
2023/01/06 09:44:43;;;;;;;1.13;0.67;;;9.40;99.90;;;;;;4991998;28;20217;-76
2023/01/06 09:47:12;;;;;;;1.43;0.70;;;9.40;99.90;;;;;;4992065;28;20490;-77
2023/01/06 09:49:45;;;;;;;0.90;0.70;;;9.40;99.90;;;;;;4992403;28;20418;-76
2023/01/06 09:52:44;;;;;;;0.90;0.60;;;9.30;99.90;;;;;;4992523;28;21118;-77
2023/01/06 09:55:29;;;;;;;0.90;0.67;;;9.30;99.90;;;;;;4990231;28;20977;-76
2023/01/06 09:58:01;;;;;;;2.60;0.83;;;9.40;99.90;;;;;;4974814;28;20433;-75
2023/01/06 10:00:43;;;;;;;0.80;0.60;;;9.50;99.90;;;;;;4991121;28;20432;-76
2023/01/06 10:03:15;;;;;;;0.97;0.80;;;9.40;99.90;;;;;;4992861;28;20416;-76
2023/01/06 10:05:51;;;;;;;0.90;0.70;;;9.30;99.90;;;;;;4992215;28;20450;-76
2023/01/06 10:08:36;;;;;;;0.80;0.73;;;9.30;99.90;;;;;;4992670;28;20416;-76
2023/01/06 10:11:11;;;;;;;1.30;1.20;;;9.30;99.90;;;;;;4993311;28;20467;-77
2023/01/06 10:13:36;;;;;;;0.80;0.80;;;9.40;99.90;;;;;;4992160;28;20714;-77
2023/01/06 10:16:20;;;;;;;1.23;0.80;;;9.50;99.90;;;;;;4992202;28;20413;-76
2023/01/06 10:18:57;;;;;;;1.00;0.90;;;9.40;99.90;;;;;;4992515;28;20178;-77
2023/01/06 10:21:45;;;;;;;1.10;0.70;;;9.30;99.90;;;;;;4992423;28;20437;-76
2023/01/06 10:24:16;;;;;;;0.90;0.73;;;9.40;99.90;;;;;;4991827;28;20420;-75
2023/01/06 10:26:44;;;;;;;1.17;1.00;;;9.30;99.90;;;;;;4990577;28;20522;-75
2023/01/06 10:29:16;;;;;;;1.73;1.23;;;9.50;99.90;;;;;;4992052;28;20420;-75
2023/01/06 10:31:47;;;;;;;1.20;1.10;;;9.70;99.90;;;;;;4973086;28;20475;-78
2023/01/06 10:34:24;;;;;;;1.27;1.17;;;9.70;99.90;;;;;;4991352;28;20542;-76
2023/01/06 10:37:04;;;;;;;1.03;0.93;;;9.60;99.90;;;;;;4973301;28;20432;-76
2023/01/06 10:39:32;;;;;;;3.00;0.90;;;9.80;99.90;;;;;;4988491;28;20516;-76
2023/01/06 10:45:13;;;;;;;1.93;1.30;;;10.00;99.90;;;;;;4990772;28;20467;-76
2023/01/06 10:47:41;;;;;;;1.23;1.10;;;9.90;99.90;;;;;;4990767;28;20417;-76
2023/01/06 10:50:15;;;;;;;1.23;0.83;;;9.80;99.90;;;;;;4989839;28;20511;-76
2023/01/06 10:52:42;;;;;;;2.37;1.00;;;9.80;99.90;;;;;;4991447;28;20455;-76
2023/01/06 10:55:22;;;;;;;1.00;0.90;;;9.70;99.90;;;;;;4990635;28;20418;-76
2023/01/06 10:57:49;;;;;;;1.10;1.00;;;9.80;99.90;;;;;;4990692;28;20444;-76
2023/01/06 11:00:21;;;;;;;0.90;0.70;;;9.80;99.90;;;;;;4990757;28;20444;-76
2023/01/06 11:02:49;;;;;;;1.77;0.80;;;9.90;99.90;;;;;;4989068;28;20460;-76
2023/01/06 11:05:18;;;;;;;1.27;0.57;;;9.70;99.90;;;;;;4990427;28;20431;-76
2023/01/06 11:08:06;;;;;;;0.70;0.50;;;9.90;99.90;;;;;;4990613;28;20910;-76
2023/01/06 11:10:39;;;;;;;0.80;0.60;;;10.10;99.90;;;;;;4990485;28;20436;-76
2023/01/06 11:13:15;;;;;;;0.90;0.70;;;10.20;99.90;;;;;;4988279;28;20431;-76
2023/01/06 11:15:41;;;;;;;3.73;0.70;;;10.10;99.90;;;;;;4990615;28;20504;-77
2023/01/06 11:18:24;;;;;;;0.70;0.50;;;10.20;99.90;;;;;;4990533;28;20417;-76
2023/01/06 11:21:08;;;;;;;0.80;0.77;;;10.30;99.90;;;;;;4990445;28;20444;-76
2023/01/06 11:23:36;;;;;;;1.20;0.50;;;10.40;99.90;;;;;;4992494;28;20988;-79
2023/01/06 11:26:13;;;;;;;1.07;0.50;;;10.50;99.90;;;;;;4974585;28;20485;-78
2023/01/06 11:28:41;;;;;;;1.00;0.90;;;10.70;99.90;;;;;;4973962;28;20422;-77
2023/01/06 11:31:18;;;;;;;0.90;0.80;;;10.70;99.90;;;;;;4989975;28;20545;-77
2023/01/06 11:33:49;;;;;;;2.90;0.60;;;10.70;99.90;;;;;;4972501;28;20453;-77
2023/01/06 11:36:16;;;;;;;1.43;0.73;;;10.40;99.90;;;;;;4990147;28;20885;-77
2023/01/06 11:38:51;;;;;;;0.90;0.50;;;10.40;99.90;;;;;;4990825;28;20429;-78
2023/01/06 11:41:34;;;;;;;0.90;0.50;;;10.50;99.90;;;;;;4973092;28;20448;-77
2023/01/06 11:44:17;;;;;;;2.20;0.83;;;10.50;99.90;;;;;;4989468;28;20410;-76
2023/01/06 11:46:54;;;;;;;0.70;0.50;;;10.50;99.90;;;;;;4971694;28;20427;-75
2023/01/06 11:49:51;;;;;;;1.23;0.50;;;10.60;99.90;;;;;;4989422;28;20438;-76
2023/01/06 11:52:30;;;;;;;0.70;0.40;;;10.60;99.90;;;;;;4987902;28;20572;-76
2023/01/06 11:55:07;;;;;;;0.80;0.57;;;10.70;99.90;;;;;;4989465;28;20418;-75
2023/01/06 11:57:51;;;;;;;2.40;0.60;;;10.80;99.90;;;;;;4989515;28;20494;-75
2023/01/06 12:00:36;;;;;;;1.00;0.60;;;10.70;99.90;;;;;;4989020;28;20626;-75
2023/01/06 12:03:22;;;;;;;0.70;0.50;;;10.80;99.90;;;;;;4987737;28;20995;-75
2023/01/06 12:06:06;;;;;;;1.07;0.53;;;10.90;99.90;;;;;;4989026;28;20472;-76
2023/01/06 12:08:44;;;;;;;0.90;0.60;;;10.90;99.90;;;;;;4989953;28;20476;-76
2023/01/06 12:11:15;;;;;;;1.43;0.70;;;10.90;99.90;;;;;;4989405;28;20465;-76
2023/01/06 12:13:42;;;;;;;0.90;0.60;;;10.80;99.90;;;;;;4988770;28;20417;-76
2023/01/06 12:16:22;;;;;;;0.70;0.50;;;10.90;99.90;;;;;;4989087;28;20432;-77
2023/01/06 12:18:49;;;;;;;1.67;0.67;;;10.90;99.90;;;;;;4988723;28;20910;-76
2023/01/06 12:21:24;;;;;;;2.10;0.80;;;11.00;99.90;;;;;;4987195;28;20462;-76
2023/01/06 12:23:51;;;;;;;1.20;0.70;;;11.00;99.90;;;;;;4970519;28;20954;-76
2023/01/06 12:26:21;;;;;;;0.80;0.50;;;11.00;99.90;;;;;;4988624;28;20423;-76
2023/01/06 12:28:48;;;;;;;4.43;1.93;;;11.00;99.90;;;;;;4988808;28;20953;-77
2023/01/06 12:31:23;;;;;;;2.03;1.10;;;11.00;99.90;;;;;;4988106;28;20520;-77
2023/01/06 12:34:24;;;;;;;1.20;0.80;;;11.00;99.90;;;;;;4989586;28;20423;-77
2023/01/06 12:37:11;;;;;;;1.00;0.70;;;11.00;99.90;;;;;;4947972;29;20424;-76
2023/01/06 12:40:02;;;;;;;0.90;0.70;;;11.00;99.90;;;;;;4969957;28;20446;-77
2023/01/06 12:42:37;;;;;;;0.80;0.53;;;10.90;99.90;;;;;;4989085;28;20425;-77
2023/01/06 12:45:09;;;;;;;1.73;0.70;;;11.00;99.90;;;;;;4989086;28;20448;-77
2023/01/06 12:47:40;;;;;;;0.70;0.50;;;11.00;99.90;;;;;;4987520;28;20424;-77
2023/01/06 12:50:15;;;;;;;0.70;0.50;;;11.00;99.90;;;;;;4988750;28;20430;-77
2023/01/06 12:52:53;;;;;;;2.27;0.70;;;11.00;99.90;;;;;;4989007;28;21020;-77
2023/01/06 12:55:28;;;;;;;0.73;0.43;;;10.90;99.90;;;;;;4970990;28;20581;-77
2023/01/06 12:58:01;;;;;;;1.07;0.70;;;10.90;99.90;;;;;;4970700;28;20535;-77
2023/01/06 13:00:39;;;;;;;1.10;0.60;;;11.10;99.90;;;;;;4988191;28;20968;-76
2023/01/06 13:03:36;;;;;;;0.70;0.50;;;10.90;99.90;;;;;;4988458;28;20420;-77
2023/01/06 13:06:16;;;;;;;1.00;0.60;;;10.90;99.90;;;;;;4987976;28;20427;-77
2023/01/06 13:08:51;;;;;;;1.20;0.53;;;10.90;99.90;;;;;;4986641;28;20406;-77
2023/01/06 13:11:29;;;;;;;3.30;0.80;;;10.80;99.90;;;;;;4987865;28;20473;-77
2023/01/06 13:14:32;;;;;;;1.03;0.40;;;10.80;99.90;;;;;;4988360;28;20808;-77
2023/01/06 13:17:38;;;;;;;0.90;0.77;;;10.80;99.90;;;;;;4990312;28;20432;-76